Time;durP1;ratioP1;P1;durP2;ratioP2;P2;SDS_P1;SDS_P2;PMS_P1;PMS_P2;Temp;Humidity;BMP_temperature;BMP_pressure;BME280_temperature;BME280_humidity;BME280_pressure;Samples;Min_cycle;Max_cycle;Signal;HPM_P1;HPM_P2
2023/10/05 00:01:30;;;;;;;7.50;2.67;;;15.40;99.90;;;;;;6213154;23;20001;-74
2023/10/05 00:03:37;;;;;;;4.55;2.13;;;15.40;99.90;;;;;;6228668;23;20031;-76
2023/10/05 00:06:16;;;;;;;6.78;2.42;;;15.40;99.90;;;;;;6213412;23;20008;-76
2023/10/05 00:08:47;;;;;;;5.20;2.22;;;15.40;99.90;;;;;;6241996;23;20047;-76
2023/10/05 00:11:36;;;;;;;8.23;2.53;;;15.40;99.90;;;;;;6242132;23;20008;-76
2023/10/05 00:14:04;;;;;;;7.22;2.00;;;15.50;99.90;;;;;;6241756;23;20010;-76
2023/10/05 00:16:39;;;;;;;5.32;1.70;;;15.40;99.90;;;;;;6242187;23;20007;-76
2023/10/05 00:19:12;;;;;;;5.18;1.98;;;15.50;99.90;;;;;;6215214;23;20011;-77
2023/10/05 00:21:46;;;;;;;10.38;2.67;;;15.40;99.90;;;;;;6215206;23;20418;-76
2023/10/05 00:24:11;;;;;;;11.50;2.40;;;15.50;99.90;;;;;;6215053;23;20601;-76
2023/10/05 00:26:37;;;;;;;7.07;2.30;;;15.50;99.90;;;;;;6213849;23;20448;-76
2023/10/05 00:31:39;;;;;;;7.35;3.75;;;15.50;99.90;;;;;;6251845;23;20000;-76
2023/10/05 00:36:50;;;;;;;12.70;2.83;;;15.50;99.90;;;;;;6252735;23;20035;-76
2023/10/05 00:39:19;;;;;;;9.65;2.83;;;15.50;99.90;;;;;;6215002;23;20384;-76
2023/10/05 00:41:45;;;;;;;7.30;2.53;;;15.50;99.90;;;;;;6241770;23;20016;-76
2023/10/05 00:44:12;;;;;;;7.38;2.30;;;15.60;99.90;;;;;;6215109;23;20000;-77
2023/10/05 00:46:39;;;;;;;7.50;2.28;;;15.60;99.90;;;;;;6241891;23;20311;-76
2023/10/05 00:49:17;;;;;;;5.93;2.17;;;15.60;99.90;;;;;;6242317;23;20004;-74
2023/10/05 00:51:47;;;;;;;6.90;3.05;;;15.60;99.90;;;;;;6215661;23;20015;-74
2023/10/05 00:54:18;;;;;;;5.22;2.42;;;15.60;99.90;;;;;;6241860;23;20015;-74
2023/10/05 00:56:46;;;;;;;11.52;2.58;;;15.60;99.90;;;;;;6242312;23;20373;-74
2023/10/05 00:59:20;;;;;;;8.48;2.60;;;15.50;99.90;;;;;;6241357;23;20007;-75
2023/10/05 01:02:03;;;;;;;6.43;2.35;;;15.60;99.90;;;;;;6242340;23;20000;-74
2023/10/05 01:12:35;;;;;;;7.97;2.20;;;15.60;99.90;;;;;;6252084;23;20325;-76
2023/10/05 01:15:05;;;;;;;9.40;3.60;;;15.50;99.90;;;;;;6241347;23;20426;-76
2023/10/05 01:17:30;;;;;;;11.23;2.72;;;15.50;99.90;;;;;;6242024;23;20023;-76
2023/10/05 01:20:07;;;;;;;5.90;2.30;;;15.50;99.90;;;;;;6241976;23;20004;-77
2023/10/05 01:22:34;;;;;;;6.78;2.38;;;15.50;99.90;;;;;;6242147;23;20513;-77
2023/10/05 01:25:02;;;;;;;10.13;2.55;;;15.50;99.90;;;;;;6240960;23;20008;-77
2023/10/05 01:27:29;;;;;;;9.10;2.25;;;15.50;99.90;;;;;;6242219;23;20438;-76
2023/10/05 01:29:59;;;;;;;6.57;2.33;;;15.50;99.90;;;;;;6240979;23;20008;-76
2023/10/05 01:32:27;;;;;;;7.43;3.28;;;15.50;99.90;;;;;;6241787;23;20007;-76
2023/10/05 01:34:53;;;;;;;6.18;2.20;;;15.50;99.90;;;;;;6214250;23;20065;-76
2023/10/05 01:37:23;;;;;;;9.15;2.45;;;15.40;99.90;;;;;;6241525;23;20063;-76
2023/10/05 01:39:49;;;;;;;5.25;2.17;;;15.50;99.90;;;;;;6241581;23;20000;-76
2023/10/05 01:42:16;;;;;;;8.32;2.63;;;15.30;99.90;;;;;;6241577;23;20062;-77
2023/10/05 01:44:47;;;;;;;7.05;2.05;;;15.30;99.90;;;;;;6240937;23;20004;-77
2023/10/05 01:47:16;;;;;;;9.35;3.08;;;15.30;99.90;;;;;;6241601;23;20008;-76
2023/10/05 01:49:46;;;;;;;7.88;2.33;;;15.20;99.90;;;;;;6241399;23;20008;-74
2023/10/05 01:52:12;;;;;;;13.60;3.30;;;15.10;99.90;;;;;;6241573;23;20004;-75
2023/10/05 01:54:40;;;;;;;8.00;2.75;;;15.10;99.90;;;;;;6242020;23;20004;-74
2023/10/05 01:57:08;;;;;;;7.75;2.58;;;15.00;99.90;;;;;;6241279;23;20074;-75
2023/10/05 01:59:35;;;;;;;7.00;2.75;;;15.00;99.90;;;;;;6241636;23;20337;-75
2023/10/05 02:02:01;;;;;;;9.98;3.10;;;15.00;99.90;;;;;;6241556;23;20000;-74
2023/10/05 02:04:27;;;;;;;9.10;3.00;;;14.90;99.90;;;;;;6241653;23;20483;-74
2023/10/05 02:06:53;;;;;;;7.97;2.72;;;14.90;99.90;;;;;;6241569;23;20461;-74
2023/10/05 02:09:20;;;;;;;8.25;2.55;;;14.90;99.90;;;;;;6241227;23;20004;-75
2023/10/05 02:11:47;;;;;;;6.82;2.83;;;14.90;99.90;;;;;;6240981;23;20023;-74
2023/10/05 02:14:14;;;;;;;7.03;3.28;;;14.90;99.90;;;;;;6214511;23;20012;-74
2023/10/05 02:16:40;;;;;;;6.88;2.38;;;14.80;99.90;;;;;;6214394;23;20426;-74
2023/10/05 02:19:07;;;;;;;5.57;3.00;;;14.80;99.90;;;;;;6241552;23;20006;-74
2023/10/05 02:21:36;;;;;;;10.20;2.78;;;14.90;99.90;;;;;;6241447;23;20011;-74
2023/10/05 02:24:29;;;;;;;7.70;2.60;;;14.90;99.90;;;;;;6241223;23;20325;-74
2023/10/05 02:29:32;;;;;;;8.00;2.80;;;14.80;99.90;;;;;;6250623;23;20310;-75
2023/10/05 02:34:41;;;;;;;9.02;2.85;;;14.80;99.90;;;;;;6241089;23;20054;-74
2023/10/05 02:37:10;;;;;;;6.50;3.15;;;14.80;99.90;;;;;;6240954;23;20004;-75
2023/10/05 02:39:37;;;;;;;7.30;2.92;;;14.80;99.90;;;;;;6240783;23;20004;-75
2023/10/05 02:42:16;;;;;;;10.55;3.92;;;14.80;99.90;;;;;;6239801;23;20405;-74
2023/10/05 02:44:45;;;;;;;7.70;2.55;;;14.80;99.90;;;;;;6213881;23;20438;-75
2023/10/05 02:47:13;;;;;;;9.05;2.85;;;14.80;99.90;;;;;;6240773;23;20094;-74
2023/10/05 02:49:47;;;;;;;5.55;2.58;;;14.80;99.90;;;;;;6240597;23;20000;-74
2023/10/05 02:52:15;;;;;;;7.32;2.63;;;14.80;99.90;;;;;;6215601;23;20008;-74
2023/10/05 02:54:41;;;;;;;9.27;3.13;;;14.80;99.90;;;;;;6242686;23;20347;-74
2023/10/05 02:57:11;;;;;;;10.18;3.92;;;14.80;99.90;;;;;;6242199;23;20306;-76
2023/10/05 02:59:36;;;;;;;7.05;3.40;;;14.80;99.90;;;;;;6242969;23;20007;-77
2023/10/05 03:02:10;;;;;;;11.20;3.58;;;14.80;99.90;;;;;;6242374;23;20000;-77
2023/10/05 03:04:46;;;;;;;8.00;2.95;;;14.80;99.90;;;;;;6243009;23;20000;-77
2023/10/05 03:07:17;;;;;;;9.20;4.30;;;14.80;99.90;;;;;;6242757;23;20008;-76
2023/10/05 03:09:46;;;;;;;10.05;3.53;;;14.80;99.90;;;;;;6242627;23;20077;-75
2023/10/05 03:12:12;;;;;;;8.32;3.15;;;14.80;99.90;;;;;;6241799;23;20004;-74
2023/10/05 03:14:44;;;;;;;7.88;3.38;;;14.80;99.90;;;;;;6242912;23;20021;-75
2023/10/05 03:17:18;;;;;;;10.60;3.50;;;14.80;99.90;;;;;;6242485;23;20054;-74
2023/10/05 03:19:43;;;;;;;9.40;3.78;;;14.70;99.90;;;;;;6242623;23;20012;-74
2023/10/05 03:22:12;;;;;;;6.45;3.30;;;14.70;99.90;;;;;;6242264;23;20011;-74
2023/10/05 03:24:38;;;;;;;10.23;3.53;;;14.70;99.90;;;;;;6242117;23;20115;-74
2023/10/05 03:27:03;;;;;;;8.50;4.28;;;14.60;99.90;;;;;;6242331;23;20008;-74
2023/10/05 03:29:30;;;;;;;7.40;3.40;;;14.70;99.90;;;;;;6242341;23;20011;-74
2023/10/05 03:34:35;;;;;;;11.38;3.85;;;14.70;99.90;;;;;;6252443;23;20008;-74
2023/10/05 03:37:08;;;;;;;13.35;4.22;;;14.70;99.90;;;;;;6242230;23;20054;-74
2023/10/05 03:42:14;;;;;;;8.50;3.65;;;14.80;99.90;;;;;;6252168;23;20027;-74
2023/10/05 03:44:40;;;;;;;8.30;3.67;;;14.80;99.90;;;;;;6215266;23;20315;-74
2023/10/05 03:47:06;;;;;;;13.55;3.97;;;14.80;99.90;;;;;;6242204;23;20412;-74
2023/10/05 03:49:31;;;;;;;6.65;3.80;;;14.80;99.90;;;;;;6214571;23;20004;-74
2023/10/05 03:51:57;;;;;;;8.80;3.95;;;14.90;99.90;;;;;;6242135;23;20607;-74
2023/10/05 03:54:25;;;;;;;5.43;3.58;;;14.90;99.90;;;;;;6241510;23;20045;-75
2023/10/05 03:57:04;;;;;;;9.27;4.15;;;14.90;99.90;;;;;;6242071;23;20000;-75
2023/10/05 03:59:33;;;;;;;10.10;3.67;;;14.90;99.90;;;;;;6241905;23;20031;-74
2023/10/05 04:02:00;;;;;;;6.80;3.55;;;14.90;99.90;;;;;;6241903;23;20487;-76
2023/10/05 04:04:28;;;;;;;9.52;4.10;;;14.90;99.90;;;;;;6214535;23;20011;-75
2023/10/05 04:06:54;;;;;;;10.20;3.40;;;14.90;99.90;;;;;;6241745;23;20004;-75
2023/10/05 04:09:20;;;;;;;8.13;3.85;;;14.80;99.90;;;;;;6213787;23;20008;-76
2023/10/05 04:11:48;;;;;;;8.60;3.75;;;14.80;99.90;;;;;;6241982;23;20413;-75
2023/10/05 04:14:14;;;;;;;5.25;3.53;;;14.80;99.90;;;;;;6241621;23;20491;-75
2023/10/05 04:16:41;;;;;;;7.78;3.47;;;14.70;99.90;;;;;;6215020;23;20058;-75
2023/10/05 04:19:10;;;;;;;7.97;3.88;;;14.70;99.90;;;;;;6241883;23;20020;-75
2023/10/05 04:21:36;;;;;;;6.35;3.35;;;14.70;99.90;;;;;;6241865;23;20075;-76
2023/10/05 04:24:02;;;;;;;11.15;3.70;;;14.60;99.90;;;;;;6240913;23;20024;-75
2023/10/05 04:26:38;;;;;;;13.05;3.85;;;14.60;99.90;;;;;;6242109;23;20000;-76
2023/10/05 04:29:04;;;;;;;14.02;4.10;;;14.50;99.90;;;;;;6241904;23;20047;-76
2023/10/05 04:31:32;;;;;;;7.68;4.80;;;14.50;99.90;;;;;;6241728;23;20103;-76
2023/10/05 04:33:59;;;;;;;9.55;3.65;;;14.50;99.90;;;;;;6215040;23;20008;-76
2023/10/05 04:36:25;;;;;;;9.45;4.85;;;14.50;99.90;;;;;;6241090;23;20279;-76
2023/10/05 04:38:54;;;;;;;10.98;3.92;;;14.50;99.90;;;;;;6242099;23;20028;-75
2023/10/05 04:41:34;;;;;;;10.70;4.40;;;14.50;99.90;;;;;;6241167;23;20019;-76
2023/10/05 04:44:00;;;;;;;6.07;3.70;;;14.40;99.90;;;;;;6214618;23;20011;-75
2023/10/05 04:46:30;;;;;;;12.73;4.15;;;14.40;99.90;;;;;;6214466;23;20083;-76
2023/10/05 04:48:56;;;;;;;10.18;4.35;;;14.40;99.90;;;;;;6214497;23;20032;-76
2023/10/05 04:51:30;;;;;;;11.85;5.10;;;14.40;99.90;;;;;;6240767;23;20393;-76
2023/10/05 04:53:58;;;;;;;9.75;4.68;;;14.40;99.90;;;;;;6241405;23;20326;-76
2023/10/05 05:04:52;;;;;;;10.52;4.72;;;14.30;99.90;;;;;;6251351;23;20062;-76
2023/10/05 05:07:21;;;;;;;13.27;4.40;;;14.30;99.90;;;;;;6240539;23;20063;-76
2023/10/05 05:09:47;;;;;;;11.95;4.15;;;14.30;99.90;;;;;;6241305;23;20315;-77
2023/10/05 05:12:17;;;;;;;10.30;4.72;;;14.30;99.90;;;;;;6213948;23;20445;-76
2023/10/05 05:14:44;;;;;;;10.95;4.40;;;14.30;99.90;;;;;;6239486;23;20013;-76
2023/10/05 05:17:18;;;;;;;12.50;4.35;;;14.20;99.90;;;;;;6210099;23;20011;-76
2023/10/05 05:19:44;;;;;;;8.82;4.50;;;14.20;99.90;;;;;;6238232;23;20000;-76
2023/10/05 05:22:11;;;;;;;14.90;4.30;;;14.20;99.90;;;;;;6239592;23;20054;-76
2023/10/05 05:24:37;;;;;;;9.38;3.60;;;14.10;99.90;;;;;;6240276;23;20000;-76
2023/10/05 05:27:03;;;;;;;11.70;4.75;;;14.10;99.90;;;;;;6213561;23;20008;-76
2023/10/05 05:29:32;;;;;;;9.63;4.20;;;14.10;99.90;;;;;;6214008;23;20425;-76
2023/10/05 05:32:10;;;;;;;8.57;4.65;;;14.10;99.90;;;;;;6241225;23;20000;-77
2023/10/05 05:34:36;;;;;;;12.75;5.55;;;14.10;99.90;;;;;;6213713;23;20008;-77
2023/10/05 05:37:02;;;;;;;8.52;4.97;;;14.10;99.90;;;;;;6240681;23;20325;-76
2023/10/05 05:39:32;;;;;;;10.85;4.30;;;14.10;99.90;;;;;;6241053;23;20004;-77
2023/10/05 05:42:05;;;;;;;8.55;4.88;;;14.10;99.90;;;;;;6213668;23;20031;-76
2023/10/05 05:44:30;;;;;;;15.67;4.80;;;14.10;99.90;;;;;;6213993;23;20004;-77
2023/10/05 05:46:59;;;;;;;7.18;4.47;;;14.10;99.90;;;;;;6241135;23;20358;-77
2023/10/05 05:49:25;;;;;;;9.88;4.78;;;14.10;99.90;;;;;;6240183;23;20019;-77
2023/10/05 05:51:51;;;;;;;10.38;4.25;;;14.10;99.90;;;;;;6241207;23;20376;-77
2023/10/05 05:54:18;;;;;;;9.60;3.92;;;14.10;99.90;;;;;;6240926;23;19996;-77
2023/10/05 05:56:44;;;;;;;11.05;4.32;;;14.20;99.90;;;;;;6240887;23;20326;-77
2023/10/05 05:59:10;;;;;;;9.68;4.93;;;14.20;99.90;;;;;;6240801;23;19996;-77
2023/10/05 06:01:36;;;;;;;10.07;4.43;;;14.20;99.90;;;;;;6241317;23;20003;-77
2023/10/05 06:04:03;;;;;;;10.32;4.55;;;14.30;99.90;;;;;;6240277;23;20007;-77
2023/10/05 06:06:29;;;;;;;12.55;4.95;;;14.30;99.90;;;;;;6240895;23;20362;-77
2023/10/05 06:08:56;;;;;;;6.68;3.90;;;14.30;99.90;;;;;;6239833;23;20000;-77
2023/10/05 06:11:22;;;;;;;11.02;4.45;;;14.30;99.90;;;;;;6240037;23;20035;-77
2023/10/05 06:13:49;;;;;;;11.15;4.40;;;14.30;99.90;;;;;;6241365;23;20005;-77
2023/10/05 06:16:15;;;;;;;9.90;4.60;;;14.30;99.90;;;;;;6241147;23;20003;-77
2023/10/05 06:18:41;;;;;;;10.15;4.70;;;14.40;99.90;;;;;;6240105;23;20126;-77
2023/10/05 06:21:07;;;;;;;9.88;4.10;;;14.30;99.90;;;;;;6240760;23;20004;-77
2023/10/05 06:23:35;;;;;;;9.88;4.07;;;14.30;99.90;;;;;;6240555;23;20544;-77
2023/10/05 06:26:02;;;;;;;10.38;4.15;;;14.40;99.90;;;;;;6240422;23;20333;-77
2023/10/05 06:28:32;;;;;;;7.22;4.75;;;14.40;99.90;;;;;;6240720;23;20004;-77
2023/10/05 06:30:57;;;;;;;13.00;4.15;;;14.30;99.90;;;;;;6241022;23;20018;-78
2023/10/05 06:33:24;;;;;;;9.77;4.43;;;14.30;99.90;;;;;;6240317;23;20382;-77
2023/10/05 06:35:49;;;;;;;10.23;4.55;;;14.40;99.90;;;;;;6240788;23;20001;-78
2023/10/05 06:38:18;;;;;;;10.23;5.05;;;14.40;99.90;;;;;;6240717;23;20074;-77
2023/10/05 06:40:44;;;;;;;7.93;4.22;;;14.40;99.90;;;;;;6240460;23;20019;-77
2023/10/05 06:43:10;;;;;;;13.43;4.32;;;14.40;99.90;;;;;;6213838;23;20004;-77
2023/10/05 06:45:35;;;;;;;12.73;5.15;;;14.50;99.90;;;;;;6240641;23;20039;-77
2023/10/05 06:48:03;;;;;;;8.65;5.05;;;14.50;99.90;;;;;;6240067;23;20039;-77
2023/10/05 06:50:29;;;;;;;7.07;4.68;;;14.50;99.90;;;;;;6240091;23;20460;-77
2023/10/05 06:52:55;;;;;;;9.77;4.30;;;14.60;99.90;;;;;;6213429;23;20001;-77
2023/10/05 06:55:23;;;;;;;8.70;4.95;;;14.60;99.90;;;;;;6239952;23;20369;-77
2023/10/05 06:57:50;;;;;;;8.38;4.40;;;14.60;99.90;;;;;;6237801;23;19996;-77
2023/10/05 07:00:20;;;;;;;9.68;4.68;;;14.70;99.90;;;;;;6239453;23;20015;-77
2023/10/05 07:02:47;;;;;;;8.75;4.32;;;14.70;99.90;;;;;;6239492;23;20004;-77
2023/10/05 07:05:13;;;;;;;7.18;4.50;;;14.70;99.90;;;;;;6240085;23;20007;-77
2023/10/05 07:07:40;;;;;;;11.50;4.63;;;14.80;99.90;;;;;;6237939;23;20010;-77
2023/10/05 07:10:07;;;;;;;8.48;4.03;;;14.80;99.90;;;;;;6239837;23;20000;-77
2023/10/05 07:12:35;;;;;;;11.63;4.75;;;14.80;99.90;;;;;;6239787;23;20091;-77
2023/10/05 07:15:01;;;;;;;10.32;4.47;;;14.90;99.90;;;;;;6239022;23;20000;-77
2023/10/05 07:17:29;;;;;;;7.68;3.83;;;14.90;99.90;;;;;;6237296;23;20380;-77
2023/10/05 07:19:54;;;;;;;12.60;5.07;;;15.00;99.90;;;;;;6239825;23;20004;-77
2023/10/05 07:22:21;;;;;;;12.48;3.85;;;15.00;99.90;;;;;;6239953;23;20024;-77
2023/10/05 07:24:47;;;;;;;5.95;3.92;;;15.10;99.90;;;;;;6240213;23;20004;-77
2023/10/05 07:27:13;;;;;;;13.60;4.63;;;15.20;99.90;;;;;;6239502;23;20034;-77
2023/10/05 07:29:44;;;;;;;9.90;4.47;;;15.10;99.90;;;;;;6237973;23;20568;-77
2023/10/05 07:32:11;;;;;;;11.20;4.60;;;15.20;99.90;;;;;;6239916;23;19992;-77
2023/10/05 07:34:37;;;;;;;10.70;4.47;;;15.20;99.90;;;;;;6240363;23;19996;-77
2023/10/05 07:37:03;;;;;;;13.63;4.07;;;15.30;99.90;;;;;;6241155;23;20007;-77
2023/10/05 07:39:28;;;;;;;7.97;4.00;;;15.30;99.90;;;;;;6212650;23;20000;-77
2023/10/05 07:41:54;;;;;;;11.77;4.82;;;15.30;99.90;;;;;;6214132;23;20097;-77
2023/10/05 07:44:20;;;;;;;7.90;4.20;;;15.40;99.90;;;;;;6241268;23;20374;-77
2023/10/05 07:46:46;;;;;;;10.90;4.50;;;15.50;99.90;;;;;;6214335;23;20004;-77
2023/10/05 07:49:13;;;;;;;9.13;4.30;;;15.60;99.90;;;;;;6241642;23;20441;-77
2023/10/05 07:51:39;;;;;;;12.70;4.95;;;15.70;99.90;;;;;;6213228;23;20008;-77
2023/10/05 07:54:05;;;;;;;9.85;4.25;;;15.70;99.90;;;;;;6214988;23;20004;-77
2023/10/05 07:56:32;;;;;;;8.13;4.05;;;15.80;99.90;;;;;;6241841;23;20011;-77
2023/10/05 07:58:58;;;;;;;10.25;3.90;;;15.80;99.90;;;;;;6214868;23;20422;-77
2023/10/05 08:01:25;;;;;;;9.85;4.50;;;15.80;99.90;;;;;;6239942;23;20003;-77
2023/10/05 08:03:51;;;;;;;12.85;4.18;;;16.00;99.90;;;;;;6241893;23;20000;-77
2023/10/05 08:06:18;;;;;;;10.80;4.13;;;16.00;99.90;;;;;;6242232;23;20000;-77
2023/10/05 08:08:44;;;;;;;10.63;4.38;;;16.10;99.90;;;;;;6241587;23;20011;-76
2023/10/05 08:11:15;;;;;;;8.32;4.38;;;16.10;99.90;;;;;;6239907;23;20015;-77
2023/10/05 08:13:41;;;;;;;8.63;5.05;;;16.20;99.90;;;;;;6238367;23;20058;-77
2023/10/05 08:16:10;;;;;;;6.60;4.15;;;16.30;99.90;;;;;;6240156;23;20004;-77
2023/10/05 08:18:36;;;;;;;10.88;4.15;;;16.30;99.90;;;;;;6241712;23;20071;-77
2023/10/05 08:21:02;;;;;;;7.75;3.70;;;16.30;99.90;;;;;;6240764;23;20010;-77
2023/10/05 08:23:28;;;;;;;7.93;3.47;;;16.40;99.90;;;;;;6239304;23;20706;-77
2023/10/05 08:25:57;;;;;;;7.97;4.10;;;16.40;99.90;;;;;;6214289;23;20038;-78
2023/10/05 08:28:26;;;;;;;5.78;3.58;;;16.40;99.90;;;;;;6239872;23;20019;-78
2023/10/05 08:31:05;;;;;;;9.77;4.20;;;16.50;99.90;;;;;;6241591;23;20008;-78
2023/10/05 08:33:33;;;;;;;11.98;3.88;;;16.50;99.90;;;;;;6240576;23;20049;-77
2023/10/05 08:36:06;;;;;;;12.57;4.75;;;16.50;99.90;;;;;;6239802;23;20011;-77
2023/10/05 08:38:33;;;;;;;6.15;3.50;;;16.60;99.90;;;;;;6214626;23;20015;-77
2023/10/05 08:41:01;;;;;;;8.98;4.45;;;16.60;99.90;;;;;;6241549;23;20441;-77
2023/10/05 08:43:27;;;;;;;5.65;3.33;;;16.70;99.90;;;;;;6240976;23;20043;-77
2023/10/05 08:46:01;;;;;;;10.93;3.25;;;16.70;99.90;;;;;;6213343;23;20008;-77
2023/10/05 08:50:57;;;;;;;8.95;3.67;;;16.80;99.90;;;;;;6241544;23;20008;-77
2023/10/05 08:53:22;;;;;;;11.70;4.40;;;16.90;99.90;;;;;;6240762;23;20000;-77
2023/10/05 08:55:52;;;;;;;7.13;3.72;;;16.90;99.90;;;;;;6240071;23;20000;-77
2023/10/05 08:58:18;;;;;;;9.27;3.80;;;17.00;99.90;;;;;;6239231;23;20000;-77
2023/10/05 09:00:51;;;;;;;6.30;3.80;;;17.10;99.90;;;;;;6240345;23;20004;-78
2023/10/05 09:03:37;;;;;;;12.48;4.20;;;17.20;99.90;;;;;;6214070;23;20008;-77
2023/10/05 09:06:24;;;;;;;6.68;2.83;;;17.20;99.90;;;;;;6239097;23;20035;-77
2023/10/05 09:09:07;;;;;;;6.07;2.97;;;17.30;99.90;;;;;;6239921;23;20009;-77
2023/10/05 09:11:34;;;;;;;9.10;3.40;;;17.40;99.90;;;;;;6241639;23;20001;-77
2023/10/05 09:14:28;;;;;;;11.18;4.30;;;17.50;99.90;;;;;;6240581;23;20440;-77
2023/10/05 09:17:09;;;;;;;;;;;17.60;99.90;;;;;;6241546;23;20034;-77
2023/10/05 09:19:35;;;;;;;8.77;3.00;;;17.60;99.90;;;;;;6239440;23;19900;-77
2023/10/05 09:22:10;;;;;;;7.80;3.03;;;17.60;99.90;;;;;;6241040;23;20011;-77
2023/10/05 09:24:37;;;;;;;9.85;3.10;;;17.70;99.90;;;;;;6214070;23;20482;-77
2023/10/05 09:27:17;;;;;;;10.88;3.40;;;17.80;99.90;;;;;;6239776;23;20004;-77
2023/10/05 09:29:44;;;;;;;6.45;3.08;;;17.80;99.90;;;;;;6238986;23;20008;-77
2023/10/05 09:32:25;;;;;;;10.75;3.70;;;17.90;99.90;;;;;;6213780;23;20011;-78
2023/10/05 09:34:51;;;;;;;7.03;2.85;;;17.90;99.90;;;;;;6240552;23;20027;-77
2023/10/05 09:37:23;;;;;;;10.05;3.83;;;17.90;99.90;;;;;;6240376;23;20244;-77
2023/10/05 09:39:49;;;;;;;7.15;3.08;;;17.90;99.90;;;;;;6239757;23;20024;-77
2023/10/05 09:42:25;;;;;;;10.25;4.00;;;17.90;99.90;;;;;;6212188;23;20424;-77
2023/10/05 09:44:57;;;;;;;8.73;3.10;;;17.90;99.90;;;;;;6241058;23;20000;-77
2023/10/05 09:47:33;;;;;;;11.82;3.70;;;18.00;99.90;;;;;;6239352;23;20012;-77
2023/10/05 09:50:00;;;;;;;9.82;3.78;;;18.00;99.90;;;;;;6239732;23;20107;-77
2023/10/05 09:52:34;;;;;;;8.63;2.95;;;18.10;99.90;;;;;;6211581;23;20330;-77
2023/10/05 09:55:03;;;;;;;8.57;3.03;;;18.10;99.90;;;;;;6213827;23;20334;-77
2023/10/05 09:57:31;;;;;;;5.75;2.63;;;18.20;99.90;;;;;;6239764;23;20325;-77
2023/10/05 10:00:00;;;;;;;9.32;2.88;;;18.20;99.90;;;;;;6213561;23;20006;-77
2023/10/05 10:02:34;;;;;;;8.40;2.80;;;18.20;99.90;;;;;;6211288;23;20015;-77
2023/10/05 10:05:09;;;;;;;;;;;18.30;99.90;;;;;;6241172;23;20000;-77
2023/10/05 10:07:36;;;;;;;6.10;2.67;;;18.30;99.90;;;;;;6213388;23;19899;-77
2023/10/05 10:10:04;;;;;;;12.38;3.28;;;18.40;99.90;;;;;;6213229;23;20032;-77
2023/10/05 10:12:33;;;;;;;7.35;2.53;;;18.50;99.90;;;;;;6240268;23;20027;-77
2023/10/05 10:14:59;;;;;;;11.65;2.83;;;18.50;99.90;;;;;;6211877;23;20034;-77
2023/10/05 10:17:30;;;;;;;8.88;3.05;;;18.50;99.90;;;;;;6240077;23;19996;-77
2023/10/05 10:20:34;;;;;;;7.85;2.58;;;18.50;99.90;;;;;;6240324;23;20031;-77
2023/10/05 10:23:07;;;;;;;9.45;3.05;;;18.60;99.90;;;;;;6213034;23;20008;-77
2023/10/05 10:25:38;;;;;;;9.80;3.47;;;18.60;99.90;;;;;;6238192;23;20008;-77
2023/10/05 10:31:22;;;;;;;7.53;3.35;;;18.70;99.90;;;;;;6188955;23;20122;-77
2023/10/05 10:33:51;;;;;;;5.70;2.70;;;18.80;99.90;;;;;;6240663;23;20028;-78
2023/10/05 10:36:57;;;;;;;6.82;3.38;;;18.80;99.90;;;;;;6238913;23;20004;-78
2023/10/05 10:39:24;;;;;;;10.52;3.40;;;18.90;99.90;;;;;;6239774;23;20004;-78
2023/10/05 10:42:00;;;;;;;7.93;2.92;;;19.00;99.90;;;;;;6213045;23;20042;-78
2023/10/05 10:44:26;;;;;;;5.78;2.90;;;19.00;99.90;;;;;;6239300;23;20440;-78
2023/10/05 10:47:08;;;;;;;8.93;3.67;;;19.00;99.80;;;;;;6238796;23;20095;-77
2023/10/05 10:49:35;;;;;;;7.45;3.28;;;19.00;99.70;;;;;;6240051;23;20321;-77
2023/10/05 10:52:02;;;;;;;12.32;3.65;;;19.10;99.70;;;;;;6240444;23;20003;-77
2023/10/05 10:54:33;;;;;;;8.95;3.05;;;19.10;99.70;;;;;;6239901;23;19996;-78
2023/10/05 10:56:59;;;;;;;8.00;3.05;;;19.20;99.90;;;;;;6239065;23;20000;-77
2023/10/05 10:59:26;;;;;;;10.60;2.75;;;19.30;99.40;;;;;;6239688;23;20004;-78
2023/10/05 11:01:59;;;;;;;7.72;3.15;;;19.20;99.30;;;;;;6212733;23;20094;-78
2023/10/05 11:04:36;;;;;;;10.40;3.00;;;19.30;99.20;;;;;;6239159;23;20820;-78
2023/10/05 11:07:09;;;;;;;6.28;2.85;;;19.40;99.20;;;;;;6240092;23;19997;-78
2023/10/05 11:09:37;;;;;;;15.48;4.75;;;19.40;99.10;;;;;;6238001;23;20058;-78
2023/10/05 11:12:11;;;;;;;7.65;3.13;;;19.50;99.10;;;;;;6241345;23;20110;-78
2023/10/05 11:14:40;;;;;;;8.68;2.88;;;19.60;99.00;;;;;;6215597;23;20015;-78
2023/10/05 11:17:23;;;;;;;7.82;2.85;;;19.70;98.90;;;;;;6242042;23;20365;-77
2023/10/05 11:19:49;;;;;;;8.75;2.90;;;19.70;98.80;;;;;;6213606;23;20004;-77
2023/10/05 11:22:23;;;;;;;7.80;2.72;;;19.80;98.60;;;;;;6242031;23;20075;-78
2023/10/05 11:25:14;;;;;;;11.00;3.25;;;19.80;98.50;;;;;;6214942;23;20026;-77
2023/10/05 11:27:57;;;;;;;9.57;2.90;;;19.80;98.60;;;;;;6236016;23;20004;-77
2023/10/05 11:30:26;;;;;;;7.82;2.33;;;19.80;98.50;;;;;;6239885;23;20008;-77
2023/10/05 11:32:56;;;;;;;7.10;3.08;;;19.80;98.40;;;;;;6241648;23;20019;-78
2023/10/05 11:35:29;;;;;;;8.75;3.55;;;19.80;98.50;;;;;;6214985;23;20397;-78
2023/10/05 11:37:58;;;;;;;7.05;3.20;;;19.80;98.40;;;;;;6240822;23;20067;-77
2023/10/05 11:40:34;;;;;;;11.82;3.60;;;19.70;98.20;;;;;;6214143;23;20091;-77
2023/10/05 11:43:13;;;;;;;6.28;2.53;;;19.80;98.30;;;;;;6240867;23;20004;-78
2023/10/05 11:45:53;;;;;;;6.68;2.92;;;19.70;98.10;;;;;;6241743;23;20110;-78
2023/10/05 11:48:20;;;;;;;7.45;3.22;;;19.70;98.30;;;;;;6241684;23;20013;-78
2023/10/05 11:50:52;;;;;;;6.55;2.80;;;19.70;98.30;;;;;;6241626;23;20008;-78
2023/10/05 11:53:21;;;;;;;14.15;3.00;;;19.70;98.30;;;;;;6212292;23;20007;-77
2023/10/05 11:55:50;;;;;;;6.95;3.08;;;19.70;98.30;;;;;;6241977;23;20082;-78
2023/10/05 11:58:17;;;;;;;7.53;2.22;;;19.80;98.20;;;;;;6213155;23;20054;-78
2023/10/05 12:00:44;;;;;;;11.00;3.05;;;19.90;98.10;;;;;;6241178;23;20004;-78
2023/10/05 12:03:11;;;;;;;5.65;2.53;;;20.00;97.90;;;;;;6239679;23;20008;-77
2023/10/05 12:05:38;;;;;;;7.95;2.45;;;20.10;97.90;;;;;;6241273;23;20462;-78
2023/10/05 12:08:05;;;;;;;10.40;2.78;;;20.10;97.80;;;;;;6240604;23;20162;-78
2023/10/05 12:10:32;;;;;;;6.35;2.58;;;20.20;97.70;;;;;;6241679;23;20030;-77
2023/10/05 12:13:01;;;;;;;8.45;3.47;;;20.30;97.50;;;;;;6241061;23;20019;-78
2023/10/05 12:15:28;;;;;;;6.35;2.40;;;20.30;97.50;;;;;;6239866;23;20004;-78
2023/10/05 12:17:54;;;;;;;7.68;2.40;;;20.40;97.40;;;;;;6214260;23;20027;-78
2023/10/05 12:20:20;;;;;;;7.35;2.35;;;20.40;97.40;;;;;;6240779;23;20000;-77
2023/10/05 12:22:49;;;;;;;7.25;2.20;;;20.50;97.50;;;;;;6240065;23;20326;-78
2023/10/05 12:25:24;;;;;;;8.45;2.83;;;20.50;97.20;;;;;;6238192;23;20082;-78
2023/10/05 12:27:50;;;;;;;7.82;2.90;;;20.50;96.80;;;;;;6241042;23;20073;-77
2023/10/05 12:30:16;;;;;;;4.97;2.00;;;20.50;96.80;;;;;;6241360;23;20400;-78
2023/10/05 12:32:42;;;;;;;7.30;2.47;;;20.40;97.00;;;;;;6214985;23;20004;-78
2023/10/05 12:35:13;;;;;;;7.28;3.25;;;20.30;97.00;;;;;;6240748;23;20000;-78
2023/10/05 12:37:44;;;;;;;7.25;2.38;;;20.30;97.00;;;;;;6241902;23;20060;-78
2023/10/05 12:40:26;;;;;;;7.63;2.90;;;20.20;97.00;;;;;;6214445;23;20008;-78
2023/10/05 12:42:52;;;;;;;7.60;2.40;;;20.10;97.20;;;;;;6214586;23;20004;-79
2023/10/05 12:45:22;;;;;;;5.82;2.15;;;20.00;97.20;;;;;;6241817;23;20004;-77
2023/10/05 12:47:52;;;;;;;6.97;2.50;;;19.90;97.10;;;;;;6241565;23;20367;-82
2023/10/05 12:50:20;;;;;;;6.53;2.20;;;19.90;97.20;;;;;;6241020;23;20000;-81
2023/10/05 12:52:46;;;;;;;11.13;2.30;;;19.80;97.20;;;;;;6240890;23;20005;-84
2023/10/05 12:55:11;;;;;;;4.47;1.92;;;19.80;97.40;;;;;;6214557;23;20423;-84
2023/10/05 12:57:37;;;;;;;5.22;1.60;;;19.90;97.70;;;;;;6241810;23;20023;-83
2023/10/05 13:00:19;;;;;;;5.03;1.75;;;20.00;97.40;;;;;;6240919;23;20087;-85
2023/10/05 13:02:47;;;;;;;12.15;2.10;;;20.10;97.00;;;;;;6214376;23;20464;-85
2023/10/05 13:05:18;;;;;;;6.60;1.90;;;20.10;96.90;;;;;;6213153;23;20004;-85
2023/10/05 13:07:43;;;;;;;9.63;2.10;;;20.20;96.80;;;;;;6241310;23;20278;-84
2023/10/05 13:10:21;;;;;;;6.82;1.88;;;20.20;96.70;;;;;;6241037;23;20011;-84
2023/10/05 13:12:50;;;;;;;3.88;1.63;;;20.20;96.60;;;;;;6240262;23;20125;-84
2023/10/05 13:15:19;;;;;;;6.53;1.63;;;20.30;96.50;;;;;;6240360;23;19996;-84
2023/10/05 13:17:46;;;;;;;6.65;2.15;;;20.20;96.30;;;;;;6210854;23;20000;-85
2023/10/05 13:20:15;;;;;;;6.30;1.63;;;20.20;96.40;;;;;;6212296;23;20552;-84
2023/10/05 13:22:44;;;;;;;6.63;1.98;;;20.20;96.50;;;;;;6239629;23;20039;-84
2023/10/05 13:25:10;;;;;;;4.88;1.80;;;20.30;96.50;;;;;;6213835;23;20385;-85
2023/10/05 13:27:36;;;;;;;6.00;1.52;;;20.30;96.30;;;;;;6214301;23;20000;-81
2023/10/05 13:30:05;;;;;;;6.65;2.67;;;20.30;96.20;;;;;;6241536;23;20008;-84
2023/10/05 13:32:31;;;;;;;7.28;1.73;;;20.40;96.10;;;;;;6219910;23;20050;-83
2023/10/05 13:34:57;;;;;;;4.07;1.77;;;20.40;95.90;;;;;;6243136;23;20058;-83